Adams Field Little Rock US
ICAO: KLIT
IATA: LIT
Category: Large
Scheduled Services: Yes

Elevation: 262 ft
TransAlt. 18000 ft.

Airport Communications:
LITTLE ROCK APP/DEP:119.5
ATIS:125.65
CLNC DEL:118.95
GND:121.9
JONESBORO RDO:122.2
TWR:118.7
UNICOM:122.95

KLIT Zoom In..

Runways:

(A) RW 04L length 8273 ft width 150 ft
ILS 110.30 / hdg 45

(B) RW 04R length 8251 ft width 150 ft
ILS 111.30 / hdg 45

(C) RW 18 length 6224 ft width 150 ft
---- / hdg 180

(D) RW 22L length 8251 ft width 150 ft
ILS 110.70 / hdg 225

(E) RW 22R length 8273 ft width 150 ft
ILS 110.30 / hdg 225

(F) RW 36 length 6224 ft width 150 ft
---- / hdg 360

Location; KLIT
Day. 19 / Time. 20.53 Zulu
* Altimeter: 29.84
* Temperature: 35° c. 95°f.
* Wind from: 270° Speed 05 kn.
Dewpoint: 24° c.
Visibility: 10 Statute Miles.
Clouds: Scattered 4000 ft.
Clouds: Broken 6500 ft.

KLIT 192053Z 27005KT 10SM SCT040 BKN065 35/24 A2984 RMK AO2 SLP105 T03500244 56009


Wind From 270°
Speed 05 kn.

 
 
jpsmedia.com for Web Design worldairports.se 2018   terms of use